Flight Track Log - Related Links

Times and Time Zones

All times are in EDT time to prevent confusion due to time zone crossing. See the TAM3782 flight status page for this flight to view local times or setup timezone preferences in your user account.

Time Position Orientation Groundspeed Altitude Reporting Facility
EDT Latitude Longitude Course Direction KTS MPH feet Rate Location/Type
Mon 10:16:00 PM -15.1020 -46.7054 57° Northeast  Level Estimated
Mon 10:17:00 PM -15.0432 -46.6129 57° Northeast  Level Estimated
Mon 10:18:00 PM -14.9844 -46.5204 57° Northeast  Level Estimated
Mon 10:19:00 PM -14.9255 -46.4280 57° Northeast  Level Estimated
Mon 10:20:00 PM -14.8666 -46.3357 57° Northeast  Level Estimated
Mon 10:21:00 PM -14.8077 -46.2434 57° Northeast  Level Estimated
Mon 10:22:00 PM -14.7488 -46.1511 57° Northeast  Level Estimated
Mon 10:23:00 PM -14.6898 -46.0589 57° Northeast  Level Estimated
Mon 10:24:00 PM -14.6307 -45.9668 57° Northeast  Level Estimated
Mon 10:25:00 PM -14.5677 -45.8685 56° Northeast  Level Estimated
Mon 10:26:00 PM -14.5047 -45.7703 56° Northeast  Level Estimated
Mon 10:27:00 PM -14.4416 -45.6722 56° Northeast  Level Estimated
Mon 10:28:00 PM -14.3785 -45.5741 56° Northeast  Level Estimated
Mon 10:29:00 PM -14.3153 -45.4761 56° Northeast  Level Estimated
Mon 10:30:00 PM -14.2521 -45.3781 56° Northeast  Level Estimated
Mon 10:31:00 PM -14.1888 -45.2802 56° Northeast  Level Estimated
Mon 10:32:00 PM -14.1255 -45.1824 56° Northeast  Level Estimated
Mon 10:33:00 PM -14.0622 -45.0846 56° Northeast  Level Estimated
Mon 10:34:00 PM -13.9988 -44.9868 56° Northeast  Level Estimated
Mon 10:35:00 PM -13.9354 -44.8891 56° Northeast  Level Estimated
Mon 10:36:00 PM -13.8720 -44.7915 56° Northeast  Level Estimated
Mon 10:37:00 PM -13.8085 -44.6939 56° Northeast  Level Estimated
Mon 10:38:00 PM -13.7450 -44.5964 56° Northeast  Level Estimated
Mon 10:39:00 PM -13.6814 -44.4989 56° Northeast  Level Estimated
Mon 10:40:00 PM -13.6178 -44.4015 56° Northeast  Level Estimated
Mon 10:41:00 PM -13.5541 -44.3041 56° Northeast  Level Estimated
Mon 10:42:00 PM -13.4905 -44.2068 56° Northeast  Level Estimated
Mon 10:43:00 PM -13.4268 -44.1095 56° Northeast  Level Estimated
Mon 10:44:00 PM -13.3630 -44.0123 56° Northeast  Level Estimated
Mon 10:45:00 PM -13.2992 -43.9151 56° Northeast  Level Estimated
Mon 10:46:00 PM -13.2354 -43.8180 56° Northeast  Level Estimated
Mon 10:47:00 PM -13.1715 -43.7210 56° Northeast  Level Estimated
Mon 10:48:00 PM -13.1076 -43.6239 56° Northeast  Level Estimated
Mon 10:49:00 PM -13.0437 -43.5270 56° Northeast  Level Estimated
Mon 10:50:00 PM -12.9797 -43.4301 56° Northeast  Level Estimated
Mon 10:51:00 PM -12.9157 -43.3332 56° Northeast  Level Estimated
Mon 10:52:00 PM -12.8517 -43.2364 56° Northeast  Level Estimated
Mon 10:53:00 PM -12.7876 -43.1396 56° Northeast  Level Estimated
Mon 10:54:00 PM -12.7235 -43.0429 56° Northeast  Level Estimated
Mon 10:55:00 PM -12.6593 -42.9463 56° Northeast  Level Estimated
Mon 10:56:00 PM -12.5951 -42.8496 56° Northeast  Level Estimated
Mon 10:57:00 PM -12.5309 -42.7531 56° Northeast  Level Estimated
Mon 10:58:00 PM -12.4667 -42.6565 56° Northeast  Level Estimated
Mon 10:59:00 PM -12.4024 -42.5601 56° Northeast  Level Estimated
Mon 11:00:00 PM -12.3380 -42.4636 56° Northeast  Level Estimated
Mon 11:01:00 PM -12.2737 -42.3673 56° Northeast  Level Estimated
Mon 11:02:00 PM -12.2093 -42.2709 56° Northeast  Level Estimated
Mon 11:03:00 PM -12.1449 -42.1746 56° Northeast  Level Estimated
Mon 11:04:00 PM -12.0804 -42.0784 56° Northeast  Level Estimated
Mon 11:05:00 PM -12.0159 -41.9822 56° Northeast  Level Estimated
Mon 11:06:00 PM -11.9514 -41.8861 56° Northeast  Level Estimated
Mon 11:07:00 PM -11.8869 -41.7900 56° Northeast  Level Estimated
Mon 11:08:00 PM -11.8223 -41.6939 56° Northeast  Level Estimated
Mon 11:09:00 PM -11.7576 -41.5979 55° Northeast  Level Estimated
Mon 11:10:00 PM -11.6930 -41.5019 55° Northeast  Level Estimated
Mon 11:11:00 PM -11.6283 -41.4060 55° Northeast  Level Estimated
Mon 11:12:00 PM -11.5636 -41.3102 55° Northeast  Level Estimated
Mon 11:13:00 PM -11.4988 -41.2143 55° Northeast  Level Estimated
Mon 11:14:00 PM -11.4341 -41.1185 55° Northeast  Level Estimated
Mon 11:15:00 PM -11.3693 -41.0228 55° Northeast  Level Estimated
Mon 11:16:00 PM -11.3044 -40.9271 55° Northeast  Level Estimated
Mon 11:17:00 PM -11.2395 -40.8315 55° Northeast  Level Estimated
Mon 11:18:00 PM -11.1746 -40.7358 55° Northeast  Level Estimated
Mon 11:19:00 PM -11.1097 -40.6403 55° Northeast  Level Estimated
Mon 11:20:00 PM -11.0448 -40.5447 55° Northeast  Level Estimated
Mon 11:21:00 PM -10.9798 -40.4493 55° Northeast  Level Estimated
Mon 11:22:00 PM -10.9147 -40.3538 55° Northeast  Level Estimated
Mon 11:23:00 PM -10.8497 -40.2584 55° Northeast  Level Estimated
Mon 11:24:00 PM -10.7846 -40.1631 55° Northeast  Level Estimated
Mon 11:25:00 PM -10.7195 -40.0677 55° Northeast  Level Estimated
Mon 11:26:00 PM -10.6544 -39.9725 55° Northeast  Level Estimated
Mon 11:27:00 PM -10.5892 -39.8772 55° Northeast  Level Estimated
Mon 11:28:00 PM -10.5240 -39.7820 55° Northeast  Level Estimated
Mon 11:29:00 PM -10.4588 -39.6869 55° Northeast  Level Estimated
Mon 11:30:00 PM -10.3935 -39.5917 55° Northeast  Level Estimated
Mon 11:31:00 PM -10.3282 -39.4967 55° Northeast  Level Estimated
Mon 11:32:00 PM -10.2629 -39.4016 55° Northeast  Level Estimated
Mon 11:33:00 PM -10.1976 -39.3066 55° Northeast  Level Estimated
Mon 11:34:00 PM -10.1322 -39.2117 55° Northeast  Level Estimated
Mon 11:35:00 PM -10.0668 -39.1167 55° Northeast  Level Estimated
Mon 11:36:00 PM -10.0014 -39.0219 55° Northeast  Level Estimated
Mon 11:37:00 PM -9.9360 -38.9270 55° Northeast  Level Estimated
Mon 11:38:00 PM -9.8705 -38.8322 55° Northeast  Level Estimated
Mon 11:39:00 PM -9.8050 -38.7374 55° Northeast  Level Estimated
Mon 11:40:00 PM -9.7395 -38.6427 55° Northeast  Level Estimated
Mon 11:41:00 PM -9.6739 -38.5480 55° Northeast  Level Estimated
Mon 11:42:00 PM -9.6083 -38.4534 55° Northeast  Level Estimated
Mon 11:43:00 PM -9.5428 -38.3588 55° Northeast  Level Estimated
Mon 11:44:00 PM -9.4771 -38.2642 55° Northeast  Level Estimated
Mon 11:45:00 PM -9.4115 -38.1696 55° Northeast  Level Estimated
Mon 11:46:00 PM -9.3458 -38.0751 55° Northeast  Level Estimated
Mon 11:47:00 PM -9.2801 -37.9807 55° Northeast  Level Estimated
Mon 11:48:00 PM -9.2144 -37.8862 55° Northeast  Level Estimated
Mon 11:49:00 PM -9.1486 -37.7918 55° Northeast  Level Estimated
Mon 11:50:00 PM -9.0828 -37.6974 55° Northeast  Level Estimated
Mon 11:51:00 PM -9.0170 -37.6031 55° Northeast  Level Estimated
Mon 11:52:00 PM -8.9512 -37.5088 55° Northeast  Level Estimated
Mon 11:53:00 PM -8.8854 -37.4145 55° Northeast  Level Estimated
Mon 11:54:00 PM -8.8195 -37.3203 55° Northeast  Level Estimated
Mon 11:55:00 PM -8.7536 -37.2261 55° Northeast  Level Estimated
Mon 11:56:00 PM -8.6877 -37.1320 55° Northeast  Level Estimated
Mon 11:57:00 PM -8.6217 -37.0378 55° Northeast  Level Estimated
Mon 11:58:00 PM -8.5557 -36.9437 55° Northeast  Level Estimated
Mon 11:59:00 PM -8.4898 -36.8497 55° Northeast  Level Estimated
Tue 12:00:00 AM -8.4237 -36.7556 55° Northeast  Level Estimated
Tue 12:01:00 AM -8.3577 -36.6616 55° Northeast  Level Estimated
Tue 12:02:00 AM -8.2917 -36.5676 55° Northeast  Level Estimated
Tue 12:03:00 AM -8.2256 -36.4737 55° Northeast  Level Estimated
Tue 12:04:00 AM -8.1595 -36.3798 55° Northeast  Level Estimated
Tue 12:05:00 AM -8.0934 -36.2859 55° Northeast  Level Estimated
Tue 12:06:00 AM -8.0272 -36.1921 55° Northeast  Level Estimated
Tue 12:07:00 AM -7.9611 -36.0983 55° Northeast  Level Estimated
Tue 12:08:00 AM -7.8949 -36.0045 55° Northeast  Level Estimated
Tue 12:09:00 AM -7.8287 -35.9107 55° Northeast  Level Estimated
Tue 12:10:00 AM -7.7624 -35.8170 55° Northeast  Level Estimated
Tue 12:11:00 AM -7.6962 -35.7233 54° Northeast  Level Estimated
Tue 12:12:00 AM -7.6299 -35.6296 54° Northeast  Level Estimated
Tue 12:13:00 AM -7.5636 -35.5360 54° Northeast  Level Estimated
Tue 12:14:00 AM -7.4973 -35.4424 54° Northeast  Level Estimated
Tue 12:15:00 AM -7.4310 -35.3488 54° Northeast  Level Estimated
Tue 12:16:00 AM -7.3646 -35.2553 54° Northeast  Level Estimated
Tue 12:17:00 AM -7.2983 -35.1617 54° Northeast  Level Estimated
Tue 12:18:00 AM -7.2319 -35.0682 54° Northeast  Level Estimated
Tue 12:19:00 AM -7.1590 -34.9657 54° Northeast  Level Estimated
Tue 12:20:00 AM -7.1484 -34.9507 54° Northeast  Level Estimated
Tue 12:21:00 AM -7.1484 -34.9507 225° Southwest  Level Estimated
Tue 12:22:00 AM -7.1484 -34.9507 225° Southwest  Level Estimated

Login

Don't have an account? Register now (free) for customized features, flight alerts, and more!